sensor_id;sensor_type;location;lat;lon;timestamp;P1;durP1;ratioP1;P2;durP2;ratioP2
1785;SDS011;890;48.158;11.540;2022-07-01T00:00:29;5.50;;;4.83;;
1785;SDS011;890;48.158;11.540;2022-07-01T00:02:54;8.70;;;5.93;;
1785;SDS011;890;48.158;11.540;2022-07-01T00:05:20;6.80;;;5.17;;
1785;SDS011;890;48.158;11.540;2022-07-01T00:07:46;6.00;;;5.40;;
1785;SDS011;890;48.158;11.540;2022-07-01T00:10:12;6.23;;;5.60;;
1785;SDS011;890;48.158;11.540;2022-07-01T00:12:38;5.90;;;5.30;;
1785;SDS011;890;48.158;11.540;2022-07-01T00:15:04;6.80;;;5.70;;
1785;SDS011;890;48.158;11.540;2022-07-01T00:17:30;7.40;;;5.63;;
1785;SDS011;890;48.158;11.540;2022-07-01T00:19:55;7.00;;;5.40;;
1785;SDS011;890;48.158;11.540;2022-07-01T00:22:21;6.03;;;5.47;;
1785;SDS011;890;48.158;11.540;2022-07-01T00:24:47;5.90;;;5.37;;
1785;SDS011;890;48.158;11.540;2022-07-01T00:27:13;5.27;;;4.87;;
1785;SDS011;890;48.158;11.540;2022-07-01T00:29:39;6.30;;;4.90;;
1785;SDS011;890;48.158;11.540;2022-07-01T00:32:05;5.57;;;4.67;;
1785;SDS011;890;48.158;11.540;2022-07-01T00:34:31;5.80;;;5.30;;
1785;SDS011;890;48.158;11.540;2022-07-01T00:36:57;5.60;;;5.10;;
1785;SDS011;890;48.158;11.540;2022-07-01T00:39:22;5.50;;;5.00;;
1785;SDS011;890;48.158;11.540;2022-07-01T00:41:48;5.80;;;4.87;;
1785;SDS011;890;48.158;11.540;2022-07-01T00:44:20;4.97;;;4.50;;
1785;SDS011;890;48.158;11.540;2022-07-01T00:46:46;5.83;;;4.80;;
1785;SDS011;890;48.158;11.540;2022-07-01T00:49:14;4.90;;;4.50;;
1785;SDS011;890;48.158;11.540;2022-07-01T00:51:40;6.13;;;4.40;;
1785;SDS011;890;48.158;11.540;2022-07-01T00:54:06;4.00;;;3.60;;
1785;SDS011;890;48.158;11.540;2022-07-01T00:56:32;3.20;;;2.90;;
1785;SDS011;890;48.158;11.540;2022-07-01T00:58:57;3.33;;;2.60;;
1785;SDS011;890;48.158;11.540;2022-07-01T01:01:23;3.33;;;3.10;;
1785;SDS011;890;48.158;11.540;2022-07-01T01:03:49;2.80;;;2.60;;
1785;SDS011;890;48.158;11.540;2022-07-01T01:06:15;2.50;;;2.30;;
1785;SDS011;890;48.158;11.540;2022-07-01T01:08:41;2.50;;;2.30;;
1785;SDS011;890;48.158;11.540;2022-07-01T01:11:07;4.83;;;2.20;;
1785;SDS011;890;48.158;11.540;2022-07-01T01:13:33;1.83;;;1.73;;
1785;SDS011;890;48.158;11.540;2022-07-01T01:15:59;1.70;;;1.60;;
1785;SDS011;890;48.158;11.540;2022-07-01T01:18:25;2.57;;;1.70;;
1785;SDS011;890;48.158;11.540;2022-07-01T01:20:54;2.17;;;1.97;;
1785;SDS011;890;48.158;11.540;2022-07-01T01:23:20;2.90;;;1.40;;
1785;SDS011;890;48.158;11.540;2022-07-01T01:25:48;1.90;;;1.50;;
1785;SDS011;890;48.158;11.540;2022-07-01T01:28:14;1.50;;;1.40;;
1785;SDS011;890;48.158;11.540;2022-07-01T01:30:40;1.30;;;1.20;;
1785;SDS011;890;48.158;11.540;2022-07-01T01:33:05;1.60;;;1.50;;
1785;SDS011;890;48.158;11.540;2022-07-01T01:35:33;1.60;;;1.40;;
1785;SDS011;890;48.158;11.540;2022-07-01T01:37:59;1.77;;;1.30;;
1785;SDS011;890;48.158;11.540;2022-07-01T01:40:25;1.37;;;1.27;;
1785;SDS011;890;48.158;11.540;2022-07-01T01:42:51;1.50;;;1.40;;
1785;SDS011;890;48.158;11.540;2022-07-01T01:45:17;1.50;;;1.40;;
1785;SDS011;890;48.158;11.540;2022-07-01T01:47:43;1.40;;;1.30;;
1785;SDS011;890;48.158;11.540;2022-07-01T01:50:09;1.30;;;1.20;;
1785;SDS011;890;48.158;11.540;2022-07-01T01:52:37;1.20;;;1.10;;
1785;SDS011;890;48.158;11.540;2022-07-01T01:55:03;1.13;;;1.03;;
1785;SDS011;890;48.158;11.540;2022-07-01T01:57:29;1.40;;;1.00;;
1785;SDS011;890;48.158;11.540;2022-07-01T01:59:55;2.13;;;1.33;;
1785;SDS011;890;48.158;11.540;2022-07-01T02:02:21;1.63;;;1.23;;
1785;SDS011;890;48.158;11.540;2022-07-01T02:04:47;1.17;;;1.07;;
1785;SDS011;890;48.158;11.540;2022-07-01T02:07:13;1.10;;;1.00;;
1785;SDS011;890;48.158;11.540;2022-07-01T02:09:39;5.10;;;1.50;;
1785;SDS011;890;48.158;11.540;2022-07-01T02:12:04;1.00;;;1.00;;
1785;SDS011;890;48.158;11.540;2022-07-01T02:14:30;1.40;;;1.20;;
1785;SDS011;890;48.158;11.540;2022-07-01T02:16:56;1.20;;;1.10;;
1785;SDS011;890;48.158;11.540;2022-07-01T02:19:21;2.07;;;1.30;;
1785;SDS011;890;48.158;11.540;2022-07-01T02:21:47;1.30;;;1.20;;
1785;SDS011;890;48.158;11.540;2022-07-01T02:24:13;1.87;;;1.73;;
1785;SDS011;890;48.158;11.540;2022-07-01T02:26:38;1.67;;;1.57;;
1785;SDS011;890;48.158;11.540;2022-07-01T02:29:04;1.70;;;1.50;;
1785;SDS011;890;48.158;11.540;2022-07-01T02:31:29;3.03;;;1.20;;
1785;SDS011;890;48.158;11.540;2022-07-01T02:33:55;1.40;;;1.30;;
1785;SDS011;890;48.158;11.540;2022-07-01T02:36:21;2.50;;;1.40;;
1785;SDS011;890;48.158;11.540;2022-07-01T02:38:46;1.33;;;1.23;;
1785;SDS011;890;48.158;11.540;2022-07-01T02:41:12;2.90;;;1.70;;
1785;SDS011;890;48.158;11.540;2022-07-01T02:43:37;1.90;;;1.67;;
1785;SDS011;890;48.158;11.540;2022-07-01T02:46:03;1.87;;;1.70;;
1785;SDS011;890;48.158;11.540;2022-07-01T02:48:29;1.90;;;1.23;;
1785;SDS011;890;48.158;11.540;2022-07-01T02:50:54;1.17;;;1.07;;
1785;SDS011;890;48.158;11.540;2022-07-01T02:53:20;1.60;;;1.50;;
1785;SDS011;890;48.158;11.540;2022-07-01T02:55:46;1.43;;;1.33;;
1785;SDS011;890;48.158;11.540;2022-07-01T02:58:12;1.20;;;1.10;;
1785;SDS011;890;48.158;11.540;2022-07-01T03:00:37;2.40;;;1.40;;
1785;SDS011;890;48.158;11.540;2022-07-01T03:03:03;1.40;;;1.30;;
1785;SDS011;890;48.158;11.540;2022-07-01T03:05:28;1.37;;;1.27;;
1785;SDS011;890;48.158;11.540;2022-07-01T03:07:54;1.53;;;1.30;;
1785;SDS011;890;48.158;11.540;2022-07-01T03:10:19;1.50;;;1.40;;
1785;SDS011;890;48.158;11.540;2022-07-01T03:12:45;1.73;;;1.60;;
1785;SDS011;890;48.158;11.540;2022-07-01T03:15:12;1.87;;;1.43;;
1785;SDS011;890;48.158;11.540;2022-07-01T03:17:40;1.63;;;1.40;;
1785;SDS011;890;48.158;11.540;2022-07-01T03:20:07;1.77;;;1.43;;
1785;SDS011;890;48.158;11.540;2022-07-01T03:22:35;1.50;;;1.40;;
1785;SDS011;890;48.158;11.540;2022-07-01T03:25:02;1.73;;;1.43;;
1785;SDS011;890;48.158;11.540;2022-07-01T03:27:28;1.67;;;1.57;;
1785;SDS011;890;48.158;11.540;2022-07-01T03:29:55;8.30;;;1.83;;
1785;SDS011;890;48.158;11.540;2022-07-01T03:32:20;1.50;;;1.40;;
1785;SDS011;890;48.158;11.540;2022-07-01T03:34:47;1.60;;;1.40;;
1785;SDS011;890;48.158;11.540;2022-07-01T03:37:15;1.50;;;1.40;;
1785;SDS011;890;48.158;11.540;2022-07-01T03:39:42;1.40;;;1.30;;
1785;SDS011;890;48.158;11.540;2022-07-01T03:42:07;2.13;;;1.50;;
1785;SDS011;890;48.158;11.540;2022-07-01T03:44:34;1.80;;;1.43;;
1785;SDS011;890;48.158;11.540;2022-07-01T03:47:00;1.60;;;1.50;;
1785;SDS011;890;48.158;11.540;2022-07-01T03:49:26;1.50;;;1.37;;
1785;SDS011;890;48.158;11.540;2022-07-01T03:51:52;1.43;;;1.30;;
1785;SDS011;890;48.158;11.540;2022-07-01T03:54:17;2.93;;;1.83;;
1785;SDS011;890;48.158;11.540;2022-07-01T03:56:59;1.73;;;1.63;;
1785;SDS011;890;48.158;11.540;2022-07-01T03:59:26;2.20;;;1.40;;
1785;SDS011;890;48.158;11.540;2022-07-01T04:01:53;4.50;;;1.50;;
1785;SDS011;890;48.158;11.540;2022-07-01T04:04:19;1.40;;;1.30;;
1785;SDS011;890;48.158;11.540;2022-07-01T04:06:45;1.83;;;1.70;;
1785;SDS011;890;48.158;11.540;2022-07-01T04:09:12;2.13;;;1.40;;
1785;SDS011;890;48.158;11.540;2022-07-01T04:11:40;2.13;;;1.70;;
1785;SDS011;890;48.158;11.540;2022-07-01T04:14:06;1.63;;;1.47;;
1785;SDS011;890;48.158;11.540;2022-07-01T04:16:34;1.70;;;1.60;;
1785;SDS011;890;48.158;11.540;2022-07-01T04:18:59;1.73;;;1.63;;
1785;SDS011;890;48.158;11.540;2022-07-01T04:21:25;2.00;;;1.83;;
1785;SDS011;890;48.158;11.540;2022-07-01T04:24:09;3.13;;;1.50;;
1785;SDS011;890;48.158;11.540;2022-07-01T04:26:35;2.60;;;1.60;;
1785;SDS011;890;48.158;11.540;2022-07-01T04:29:01;1.77;;;1.63;;
1785;SDS011;890;48.158;11.540;2022-07-01T04:31:27;1.70;;;1.60;;
1785;SDS011;890;48.158;11.540;2022-07-01T04:33:53;1.53;;;1.43;;
1785;SDS011;890;48.158;11.540;2022-07-01T04:36:18;1.80;;;1.70;;
1785;SDS011;890;48.158;11.540;2022-07-01T04:38:44;2.90;;;1.50;;
1785;SDS011;890;48.158;11.540;2022-07-01T04:41:10;1.50;;;1.40;;
1785;SDS011;890;48.158;11.540;2022-07-01T04:43:54;2.00;;;1.67;;
1785;SDS011;890;48.158;11.540;2022-07-01T04:46:20;2.53;;;1.60;;
1785;SDS011;890;48.158;11.540;2022-07-01T04:48:45;2.33;;;1.80;;
1785;SDS011;890;48.158;11.540;2022-07-01T04:51:11;1.80;;;1.70;;
1785;SDS011;890;48.158;11.540;2022-07-01T04:53:36;2.20;;;1.73;;
1785;SDS011;890;48.158;11.540;2022-07-01T04:56:02;1.57;;;1.47;;
1785;SDS011;890;48.158;11.540;2022-07-01T04:58:28;1.87;;;1.77;;
1785;SDS011;890;48.158;11.540;2022-07-01T05:00:54;1.50;;;1.40;;
1785;SDS011;890;48.158;11.540;2022-07-01T05:03:19;2.10;;;1.57;;
1785;SDS011;890;48.158;11.540;2022-07-01T05:05:45;2.00;;;1.80;;
1785;SDS011;890;48.158;11.540;2022-07-01T05:08:10;2.00;;;1.80;;
1785;SDS011;890;48.158;11.540;2022-07-01T05:10:36;1.77;;;1.53;;
1785;SDS011;890;48.158;11.540;2022-07-01T05:13:02;2.37;;;1.43;;
1785;SDS011;890;48.158;11.540;2022-07-01T05:15:27;1.90;;;1.80;;
1785;SDS011;890;48.158;11.540;2022-07-01T05:17:53;1.87;;;1.50;;
1785;SDS011;890;48.158;11.540;2022-07-01T05:20:37;3.57;;;2.90;;
1785;SDS011;890;48.158;11.540;2022-07-01T05:23:21;1.77;;;1.67;;
1785;SDS011;890;48.158;11.540;2022-07-01T05:25:47;1.83;;;1.60;;
1785;SDS011;890;48.158;11.540;2022-07-01T05:28:13;2.37;;;2.17;;
1785;SDS011;890;48.158;11.540;2022-07-01T05:30:38;3.30;;;1.60;;
1785;SDS011;890;48.158;11.540;2022-07-01T05:33:04;3.37;;;2.00;;
1785;SDS011;890;48.158;11.540;2022-07-01T05:35:30;1.73;;;1.63;;
1785;SDS011;890;48.158;11.540;2022-07-01T05:37:56;1.70;;;1.60;;
1785;SDS011;890;48.158;11.540;2022-07-01T05:40:21;1.80;;;1.70;;
1785;SDS011;890;48.158;11.540;2022-07-01T05:42:47;1.80;;;1.70;;
1785;SDS011;890;48.158;11.540;2022-07-01T05:45:13;1.87;;;1.77;;
1785;SDS011;890;48.158;11.540;2022-07-01T05:47:38;2.40;;;2.03;;
1785;SDS011;890;48.158;11.540;2022-07-01T05:50:04;1.70;;;1.60;;
1785;SDS011;890;48.158;11.540;2022-07-01T05:52:30;2.00;;;1.80;;
1785;SDS011;890;48.158;11.540;2022-07-01T05:54:55;2.60;;;1.90;;
1785;SDS011;890;48.158;11.540;2022-07-01T05:57:22;1.67;;;1.47;;
1785;SDS011;890;48.158;11.540;2022-07-01T05:59:47;2.67;;;2.10;;
1785;SDS011;890;48.158;11.540;2022-07-01T06:02:13;1.90;;;1.73;;
1785;SDS011;890;48.158;11.540;2022-07-01T06:04:38;2.20;;;2.00;;
1785;SDS011;890;48.158;11.540;2022-07-01T06:07:04;6.43;;;2.20;;
1785;SDS011;890;48.158;11.540;2022-07-01T06:09:30;1.70;;;1.60;;
1785;SDS011;890;48.158;11.540;2022-07-01T06:11:56;1.70;;;1.60;;
1785;SDS011;890;48.158;11.540;2022-07-01T06:14:21;2.27;;;2.07;;
1785;SDS011;890;48.158;11.540;2022-07-01T06:16:47;1.73;;;1.63;;
1785;SDS011;890;48.158;11.540;2022-07-01T06:19:12;1.70;;;1.60;;
1785;SDS011;890;48.158;11.540;2022-07-01T06:21:38;1.50;;;1.40;;
1785;SDS011;890;48.158;11.540;2022-07-01T06:24:04;2.17;;;1.80;;
1785;SDS011;890;48.158;11.540;2022-07-01T06:26:30;2.57;;;1.47;;
1785;SDS011;890;48.158;11.540;2022-07-01T06:28:55;1.67;;;1.57;;
1785;SDS011;890;48.158;11.540;2022-07-01T06:31:21;1.70;;;1.60;;
1785;SDS011;890;48.158;11.540;2022-07-01T06:33:48;1.73;;;1.50;;
1785;SDS011;890;48.158;11.540;2022-07-01T06:36:15;1.70;;;1.60;;
1785;SDS011;890;48.158;11.540;2022-07-01T06:38:41;2.00;;;1.80;;
1785;SDS011;890;48.158;11.540;2022-07-01T06:41:07;2.10;;;1.90;;
1785;SDS011;890;48.158;11.540;2022-07-01T06:43:51;2.30;;;2.10;;
1785;SDS011;890;48.158;11.540;2022-07-01T06:46:17;1.87;;;1.63;;
1785;SDS011;890;48.158;11.540;2022-07-01T06:48:42;1.70;;;1.60;;
1785;SDS011;890;48.158;11.540;2022-07-01T06:51:08;1.63;;;1.53;;
1785;SDS011;890;48.158;11.540;2022-07-01T06:53:33;2.20;;;2.00;;
1785;SDS011;890;48.158;11.540;2022-07-01T06:55:59;2.10;;;2.00;;
1785;SDS011;890;48.158;11.540;2022-07-01T06:58:24;1.80;;;1.70;;
1785;SDS011;890;48.158;11.540;2022-07-01T07:00:50;1.70;;;1.60;;
1785;SDS011;890;48.158;11.540;2022-07-01T07:03:15;2.00;;;1.90;;
1785;SDS011;890;48.158;11.540;2022-07-01T07:05:41;2.20;;;2.00;;
1785;SDS011;890;48.158;11.540;2022-07-01T07:08:06;2.10;;;2.00;;
1785;SDS011;890;48.158;11.540;2022-07-01T07:10:32;2.30;;;2.10;;
1785;SDS011;890;48.158;11.540;2022-07-01T07:12:58;2.30;;;2.00;;
1785;SDS011;890;48.158;11.540;2022-07-01T07:15:23;2.30;;;2.10;;
1785;SDS011;890;48.158;11.540;2022-07-01T07:17:49;2.40;;;2.20;;
1785;SDS011;890;48.158;11.540;2022-07-01T07:20:14;2.40;;;2.20;;
1785;SDS011;890;48.158;11.540;2022-07-01T07:22:40;3.77;;;2.10;;
1785;SDS011;890;48.158;11.540;2022-07-01T07:25:05;2.60;;;2.40;;
1785;SDS011;890;48.158;11.540;2022-07-01T07:27:31;3.00;;;2.80;;
1785;SDS011;890;48.158;11.540;2022-07-01T07:29:57;3.37;;;3.07;;
1785;SDS011;890;48.158;11.540;2022-07-01T07:32:22;3.50;;;3.20;;
1785;SDS011;890;48.158;11.540;2022-07-01T07:34:48;3.40;;;3.10;;
1785;SDS011;890;48.158;11.540;2022-07-01T07:37:14;3.90;;;3.60;;
1785;SDS011;890;48.158;11.540;2022-07-01T07:39:39;4.10;;;3.80;;
1785;SDS011;890;48.158;11.540;2022-07-01T07:42:06;4.30;;;4.00;;
1785;SDS011;890;48.158;11.540;2022-07-01T07:44:31;4.90;;;4.50;;
1785;SDS011;890;48.158;11.540;2022-07-01T07:46:57;4.93;;;4.53;;
1785;SDS011;890;48.158;11.540;2022-07-01T07:49:23;4.93;;;4.53;;
1785;SDS011;890;48.158;11.540;2022-07-01T07:51:49;4.93;;;4.20;;
1785;SDS011;890;48.158;11.540;2022-07-01T07:54:16;4.53;;;4.13;;
1785;SDS011;890;48.158;11.540;2022-07-01T07:56:41;4.57;;;4.23;;
1785;SDS011;890;48.158;11.540;2022-07-01T07:59:07;5.30;;;3.73;;
1785;SDS011;890;48.158;11.540;2022-07-01T08:01:33;4.53;;;4.13;;
1785;SDS011;890;48.158;11.540;2022-07-01T08:03:59;4.93;;;4.53;;
1785;SDS011;890;48.158;11.540;2022-07-01T08:06:24;4.70;;;3.90;;
1785;SDS011;890;48.158;11.540;2022-07-01T08:08:50;4.10;;;3.70;;
1785;SDS011;890;48.158;11.540;2022-07-01T08:11:16;3.53;;;3.23;;
1785;SDS011;890;48.158;11.540;2022-07-01T08:13:42;4.00;;;3.60;;
1785;SDS011;890;48.158;11.540;2022-07-01T08:16:08;3.03;;;2.83;;
1785;SDS011;890;48.158;11.540;2022-07-01T08:18:34;2.20;;;2.00;;
1785;SDS011;890;48.158;11.540;2022-07-01T08:21:00;1.43;;;1.33;;
1785;SDS011;890;48.158;11.540;2022-07-01T08:23:26;1.70;;;1.30;;
1785;SDS011;890;48.158;11.540;2022-07-01T08:25:51;1.30;;;1.20;;
1785;SDS011;890;48.158;11.540;2022-07-01T08:28:17;1.50;;;1.37;;
1785;SDS011;890;48.158;11.540;2022-07-01T08:30:43;1.70;;;1.60;;
1785;SDS011;890;48.158;11.540;2022-07-01T08:33:09;1.87;;;1.23;;
1785;SDS011;890;48.158;11.540;2022-07-01T08:35:35;1.67;;;1.50;;
1785;SDS011;890;48.158;11.540;2022-07-01T08:38:02;1.70;;;1.60;;
1785;SDS011;890;48.158;11.540;2022-07-01T08:40:28;2.47;;;2.27;;
1785;SDS011;890;48.158;11.540;2022-07-01T08:42:56;1.67;;;1.57;;
1785;SDS011;890;48.158;11.540;2022-07-01T08:45:26;2.10;;;1.90;;
1785;SDS011;890;48.158;11.540;2022-07-01T08:47:53;1.90;;;1.80;;
1785;SDS011;890;48.158;11.540;2022-07-01T08:50:22;1.70;;;1.60;;
1785;SDS011;890;48.158;11.540;2022-07-01T08:52:49;1.80;;;1.70;;
1785;SDS011;890;48.158;11.540;2022-07-01T08:55:15;2.07;;;1.90;;
1785;SDS011;890;48.158;11.540;2022-07-01T08:57:40;2.23;;;2.13;;
1785;SDS011;890;48.158;11.540;2022-07-01T09:00:07;2.10;;;1.83;;
1785;SDS011;890;48.158;11.540;2022-07-01T09:05:22;2.20;;;1.60;;
1785;SDS011;890;48.158;11.540;2022-07-01T09:07:54;2.07;;;1.63;;
1785;SDS011;890;48.158;11.540;2022-07-01T09:10:25;1.80;;;1.70;;
1785;SDS011;890;48.158;11.540;2022-07-01T09:12:51;3.20;;;1.40;;
1785;SDS011;890;48.158;11.540;2022-07-01T09:15:21;1.50;;;1.40;;
1785;SDS011;890;48.158;11.540;2022-07-01T09:18:06;1.67;;;1.57;;
1785;SDS011;890;48.158;11.540;2022-07-01T09:20:42;3.90;;;1.40;;
1785;SDS011;890;48.158;11.540;2022-07-01T09:23:10;1.33;;;1.23;;
1785;SDS011;890;48.158;11.540;2022-07-01T09:25:49;1.70;;;1.60;;
1785;SDS011;890;48.158;11.540;2022-07-01T09:28:20;1.70;;;1.60;;
1785;SDS011;890;48.158;11.540;2022-07-01T09:30:48;2.07;;;1.40;;
1785;SDS011;890;48.158;11.540;2022-07-01T09:33:22;1.40;;;1.30;;
1785;SDS011;890;48.158;11.540;2022-07-01T09:35:49;1.30;;;1.20;;
1785;SDS011;890;48.158;11.540;2022-07-01T09:38:25;1.70;;;1.60;;
1785;SDS011;890;48.158;11.540;2022-07-01T09:43:19;1.70;;;1.60;;
1785;SDS011;890;48.158;11.540;2022-07-01T09:48:16;1.60;;;1.50;;
1785;SDS011;890;48.158;11.540;2022-07-01T09:50:41;1.60;;;1.50;;
1785;SDS011;890;48.158;11.540;2022-07-01T09:53:08;1.77;;;1.67;;
1785;SDS011;890;48.158;11.540;2022-07-01T09:55:34;1.87;;;1.77;;
1785;SDS011;890;48.158;11.540;2022-07-01T09:57:59;1.60;;;1.50;;
1785;SDS011;890;48.158;11.540;2022-07-01T10:00:26;1.70;;;1.60;;
1785;SDS011;890;48.158;11.540;2022-07-01T10:02:53;2.00;;;1.90;;
1785;SDS011;890;48.158;11.540;2022-07-01T10:05:20;1.63;;;1.53;;
1785;SDS011;890;48.158;11.540;2022-07-01T10:07:55;1.60;;;1.50;;
1785;SDS011;890;48.158;11.540;2022-07-01T10:10:44;1.60;;;1.50;;
1785;SDS011;890;48.158;11.540;2022-07-01T10:13:23;1.60;;;1.50;;
1785;SDS011;890;48.158;11.540;2022-07-01T10:15:51;1.40;;;1.10;;
1785;SDS011;890;48.158;11.540;2022-07-01T10:18:19;1.73;;;1.33;;
1785;SDS011;890;48.158;11.540;2022-07-01T10:20:46;1.53;;;1.43;;
1785;SDS011;890;48.158;11.540;2022-07-01T10:23:13;2.20;;;2.00;;
1785;SDS011;890;48.158;11.540;2022-07-01T10:25:40;3.87;;;1.80;;
1785;SDS011;890;48.158;11.540;2022-07-01T10:33:59;1.70;;;1.60;;
1785;SDS011;890;48.158;11.540;2022-07-01T10:36:27;1.60;;;1.50;;
1785;SDS011;890;48.158;11.540;2022-07-01T10:41:26;2.50;;;1.93;;
1785;SDS011;890;48.158;11.540;2022-07-01T10:43:53;2.00;;;1.90;;
1785;SDS011;890;48.158;11.540;2022-07-01T10:49:19;1.90;;;1.80;;
1785;SDS011;890;48.158;11.540;2022-07-01T10:52:06;2.33;;;2.13;;
1785;SDS011;890;48.158;11.540;2022-07-01T10:59:42;2.40;;;2.20;;
1785;SDS011;890;48.158;11.540;2022-07-01T11:02:30;2.00;;;1.80;;
1785;SDS011;890;48.158;11.540;2022-07-01T11:04:58;1.87;;;1.77;;
1785;SDS011;890;48.158;11.540;2022-07-01T11:07:29;2.07;;;1.90;;
1785;SDS011;890;48.158;11.540;2022-07-01T11:09:57;4.20;;;3.80;;
1785;SDS011;890;48.158;11.540;2022-07-01T11:12:23;2.10;;;2.00;;
1785;SDS011;890;48.158;11.540;2022-07-01T11:14:50;3.90;;;2.00;;
1785;SDS011;890;48.158;11.540;2022-07-01T11:17:17;2.20;;;2.00;;
1785;SDS011;890;48.158;11.540;2022-07-01T11:19:49;2.20;;;2.10;;
1785;SDS011;890;48.158;11.540;2022-07-01T11:22:18;1.83;;;1.73;;
1785;SDS011;890;48.158;11.540;2022-07-01T11:24:45;1.83;;;1.70;;
1785;SDS011;890;48.158;11.540;2022-07-01T11:27:11;1.90;;;1.80;;
1785;SDS011;890;48.158;11.540;2022-07-01T11:29:36;2.00;;;1.90;;
1785;SDS011;890;48.158;11.540;2022-07-01T11:32:02;2.30;;;2.10;;
1785;SDS011;890;48.158;11.540;2022-07-01T11:34:28;2.30;;;2.10;;
1785;SDS011;890;48.158;11.540;2022-07-01T11:36:55;2.33;;;2.23;;
1785;SDS011;890;48.158;11.540;2022-07-01T11:39:40;2.70;;;2.50;;
1785;SDS011;890;48.158;11.540;2022-07-01T11:42:08;2.40;;;2.20;;
1785;SDS011;890;48.158;11.540;2022-07-01T11:44:40;3.93;;;2.30;;
1785;SDS011;890;48.158;11.540;2022-07-01T11:47:09;2.40;;;2.20;;
1785;SDS011;890;48.158;11.540;2022-07-01T11:49:46;2.63;;;2.43;;
1785;SDS011;890;48.158;11.540;2022-07-01T11:52:13;2.80;;;2.60;;
1785;SDS011;890;48.158;11.540;2022-07-01T11:54:40;2.57;;;2.00;;
1785;SDS011;890;48.158;11.540;2022-07-01T11:57:16;2.67;;;2.47;;
1785;SDS011;890;48.158;11.540;2022-07-01T11:59:44;2.10;;;2.00;;
1785;SDS011;890;48.158;11.540;2022-07-01T12:02:11;2.50;;;2.30;;
1785;SDS011;890;48.158;11.540;2022-07-01T12:04:39;2.00;;;1.90;;
1785;SDS011;890;48.158;11.540;2022-07-01T12:07:05;2.23;;;2.13;;
1785;SDS011;890;48.158;11.540;2022-07-01T12:09:32;2.40;;;2.20;;
1785;SDS011;890;48.158;11.540;2022-07-01T12:11:58;2.90;;;2.47;;
1785;SDS011;890;48.158;11.540;2022-07-01T12:14:29;2.90;;;2.60;;
1785;SDS011;890;48.158;11.540;2022-07-01T12:16:57;2.20;;;2.10;;
1785;SDS011;890;48.158;11.540;2022-07-01T12:19:29;2.20;;;2.10;;
1785;SDS011;890;48.158;11.540;2022-07-01T12:22:04;2.40;;;2.20;;
1785;SDS011;890;48.158;11.540;2022-07-01T12:24:32;2.20;;;2.00;;
1785;SDS011;890;48.158;11.540;2022-07-01T12:29:24;3.03;;;2.70;;
1785;SDS011;890;48.158;11.540;2022-07-01T12:31:58;2.77;;;2.57;;
1785;SDS011;890;48.158;11.540;2022-07-01T12:34:39;3.60;;;2.30;;
1785;SDS011;890;48.158;11.540;2022-07-01T12:37:11;2.57;;;2.37;;
1785;SDS011;890;48.158;11.540;2022-07-01T12:39:53;2.73;;;2.53;;
1785;SDS011;890;48.158;11.540;2022-07-01T12:44:57;2.93;;;2.73;;
1785;SDS011;890;48.158;11.540;2022-07-01T12:47:25;3.10;;;2.90;;
1785;SDS011;890;48.158;11.540;2022-07-01T12:50:08;3.40;;;3.10;;
1785;SDS011;890;48.158;11.540;2022-07-01T12:55:32;2.90;;;2.70;;
1785;SDS011;890;48.158;11.540;2022-07-01T12:57:59;3.47;;;3.17;;
1785;SDS011;890;48.158;11.540;2022-07-01T13:00:25;4.20;;;3.80;;
1785;SDS011;890;48.158;11.540;2022-07-01T13:02:53;3.27;;;3.07;;
1785;SDS011;890;48.158;11.540;2022-07-01T13:05:20;5.47;;;3.60;;
1785;SDS011;890;48.158;11.540;2022-07-01T13:07:46;3.17;;;2.93;;
1785;SDS011;890;48.158;11.540;2022-07-01T13:10:12;3.30;;;3.10;;
1785;SDS011;890;48.158;11.540;2022-07-01T13:12:39;3.40;;;3.10;;
1785;SDS011;890;48.158;11.540;2022-07-01T13:15:04;4.60;;;4.20;;
1785;SDS011;890;48.158;11.540;2022-07-01T13:17:30;3.47;;;3.27;;
1785;SDS011;890;48.158;11.540;2022-07-01T13:19:56;4.50;;;3.93;;
1785;SDS011;890;48.158;11.540;2022-07-01T13:22:21;4.80;;;3.73;;
1785;SDS011;890;48.158;11.540;2022-07-01T13:24:47;4.27;;;3.57;;
1785;SDS011;890;48.158;11.540;2022-07-01T13:27:13;5.40;;;3.73;;
1785;SDS011;890;48.158;11.540;2022-07-01T13:29:38;3.57;;;3.27;;
1785;SDS011;890;48.158;11.540;2022-07-01T13:32:04;3.80;;;3.50;;
1785;SDS011;890;48.158;11.540;2022-07-01T13:34:32;3.97;;;3.60;;
1785;SDS011;890;48.158;11.540;2022-07-01T13:36:58;3.90;;;3.60;;
1785;SDS011;890;48.158;11.540;2022-07-01T13:39:24;4.10;;;3.80;;
1785;SDS011;890;48.158;11.540;2022-07-01T13:41:49;4.17;;;3.87;;
1785;SDS011;890;48.158;11.540;2022-07-01T13:44:15;3.63;;;3.20;;
1785;SDS011;890;48.158;11.540;2022-07-01T13:46:41;3.50;;;3.20;;
1785;SDS011;890;48.158;11.540;2022-07-01T13:49:06;3.43;;;3.00;;
1785;SDS011;890;48.158;11.540;2022-07-01T13:51:32;3.70;;;3.40;;
1785;SDS011;890;48.158;11.540;2022-07-01T13:53:58;4.10;;;3.70;;
1785;SDS011;890;48.158;11.540;2022-07-01T13:56:24;3.73;;;3.37;;
1785;SDS011;890;48.158;11.540;2022-07-01T13:58:51;3.87;;;3.57;;
1785;SDS011;890;48.158;11.540;2022-07-01T14:01:18;4.50;;;3.50;;
1785;SDS011;890;48.158;11.540;2022-07-01T14:03:44;3.87;;;3.57;;
1785;SDS011;890;48.158;11.540;2022-07-01T14:06:10;4.13;;;3.73;;
1785;SDS011;890;48.158;11.540;2022-07-01T14:08:36;3.80;;;3.50;;
1785;SDS011;890;48.158;11.540;2022-07-01T14:11:02;4.20;;;3.80;;
1785;SDS011;890;48.158;11.540;2022-07-01T14:13:28;4.23;;;3.83;;
1785;SDS011;890;48.158;11.540;2022-07-01T14:15:53;4.40;;;3.43;;
1785;SDS011;890;48.158;11.540;2022-07-01T14:18:19;3.93;;;3.63;;
1785;SDS011;890;48.158;11.540;2022-07-01T14:20:45;3.90;;;3.60;;
1785;SDS011;890;48.158;11.540;2022-07-01T14:23:10;3.90;;;3.60;;
1785;SDS011;890;48.158;11.540;2022-07-01T14:25:37;3.97;;;3.50;;
1785;SDS011;890;48.158;11.540;2022-07-01T14:28:04;3.50;;;3.20;;
1785;SDS011;890;48.158;11.540;2022-07-01T14:30:30;3.80;;;3.47;;
1785;SDS011;890;48.158;11.540;2022-07-01T14:32:55;4.00;;;3.60;;
1785;SDS011;890;48.158;11.540;2022-07-01T14:35:21;3.37;;;3.07;;
1785;SDS011;890;48.158;11.540;2022-07-01T14:37:46;4.10;;;3.20;;
1785;SDS011;890;48.158;11.540;2022-07-01T14:40:12;3.53;;;3.23;;
1785;SDS011;890;48.158;11.540;2022-07-01T14:42:38;3.20;;;3.00;;
1785;SDS011;890;48.158;11.540;2022-07-01T14:45:04;3.47;;;3.17;;
1785;SDS011;890;48.158;11.540;2022-07-01T14:47:31;3.40;;;3.10;;
1785;SDS011;890;48.158;11.540;2022-07-01T14:49:58;3.57;;;3.27;;
1785;SDS011;890;48.158;11.540;2022-07-01T14:52:24;3.17;;;2.87;;
1785;SDS011;890;48.158;11.540;2022-07-01T14:54:50;3.17;;;2.97;;
1785;SDS011;890;48.158;11.540;2022-07-01T14:57:16;3.90;;;3.23;;
1785;SDS011;890;48.158;11.540;2022-07-01T14:59:42;3.30;;;3.00;;
1785;SDS011;890;48.158;11.540;2022-07-01T15:02:07;3.70;;;3.30;;
1785;SDS011;890;48.158;11.540;2022-07-01T15:04:33;2.90;;;2.60;;
1785;SDS011;890;48.158;11.540;2022-07-01T15:06:59;2.80;;;2.60;;
1785;SDS011;890;48.158;11.540;2022-07-01T15:09:25;3.10;;;2.90;;
1785;SDS011;890;48.158;11.540;2022-07-01T15:11:51;3.53;;;3.23;;
1785;SDS011;890;48.158;11.540;2022-07-01T15:14:17;2.83;;;2.63;;
1785;SDS011;890;48.158;11.540;2022-07-01T15:16:43;3.40;;;3.10;;
1785;SDS011;890;48.158;11.540;2022-07-01T15:19:09;3.23;;;2.93;;
1785;SDS011;890;48.158;11.540;2022-07-01T15:21:35;3.30;;;3.00;;
1785;SDS011;890;48.158;11.540;2022-07-01T15:24:03;3.10;;;2.80;;
1785;SDS011;890;48.158;11.540;2022-07-01T15:26:29;3.10;;;2.90;;
1785;SDS011;890;48.158;11.540;2022-07-01T15:28:54;3.20;;;2.90;;
1785;SDS011;890;48.158;11.540;2022-07-01T15:31:20;3.33;;;3.13;;
1785;SDS011;890;48.158;11.540;2022-07-01T15:33:46;3.93;;;3.53;;
1785;SDS011;890;48.158;11.540;2022-07-01T15:36:12;3.17;;;2.97;;
1785;SDS011;890;48.158;11.540;2022-07-01T15:38:38;3.27;;;2.97;;
1785;SDS011;890;48.158;11.540;2022-07-01T15:41:03;3.00;;;2.70;;
1785;SDS011;890;48.158;11.540;2022-07-01T15:43:31;3.37;;;3.03;;
1785;SDS011;890;48.158;11.540;2022-07-01T15:45:58;3.30;;;3.00;;